createdAt,value
2019-05-14T00:01:36.863Z,89.70
2019-05-14T00:06:41.917Z,88.70
2019-05-14T00:11:46.481Z,89.20
2019-05-14T00:16:51.406Z,88.70
2019-05-14T00:21:56.056Z,88.30
2019-05-14T00:27:02.084Z,88.30
2019-05-14T00:32:06.778Z,88.40
2019-05-14T00:37:11.677Z,88.20
2019-05-14T00:42:16.425Z,88.60
2019-05-14T00:47:21.771Z,89.20
2019-05-14T00:52:26.314Z,89.50
2019-05-14T00:57:31.604Z,89.40
2019-05-14T01:02:36.226Z,89.70
2019-05-14T01:07:42.373Z,89.80
2019-05-14T01:12:46.959Z,89.50
2019-05-14T01:17:51.803Z,89.50
2019-05-14T01:22:56.324Z,89.40
2019-05-14T01:28:02.084Z,89.70
2019-05-14T01:33:06.839Z,89.20
2019-05-14T01:38:11.563Z,89.50
2019-05-14T01:43:16.139Z,89.70
2019-05-14T01:48:21.957Z,89.80
2019-05-14T01:53:26.577Z,90.10
2019-05-14T01:58:31.986Z,90.10
2019-05-14T02:03:36.484Z,90.80
2019-05-14T02:08:41.451Z,90.20
2019-05-14T02:13:48.435Z,90.90
2019-05-14T02:18:52.418Z,90.50
2019-05-14T02:23:56.796Z,91.20
2019-05-14T02:29:02.081Z,91.00
2019-05-14T02:34:09.914Z,91.00
2019-05-14T02:39:12.871Z,90.70
2019-05-14T02:44:18.862Z,90.60
2019-05-14T02:49:23.440Z,91.40
2019-05-14T02:54:29.722Z,90.70
2019-05-14T02:59:34.003Z,91.00
2019-05-14T03:04:39.532Z,90.90
2019-05-14T03:09:44.512Z,91.50
2019-05-14T03:14:50.269Z,91.10
2019-05-14T03:19:55.033Z,91.60
2019-05-14T03:24:59.896Z,92.00
2019-05-14T03:30:05.741Z,91.40
2019-05-14T03:35:13.202Z,91.10
2019-05-14T03:40:19.483Z,91.30
2019-05-14T03:45:23.299Z,92.00
2019-05-14T03:50:29.831Z,92.10
2019-05-14T03:55:34.034Z,91.40
2019-05-14T04:00:52.042Z,91.10
2019-05-14T04:05:59.552Z,90.70
2019-05-14T04:11:04.452Z,91.20
2019-05-14T04:16:11.696Z,92.10
2019-05-14T04:21:20.261Z,92.80
2019-05-14T04:26:24.084Z,92.30
2019-05-14T04:31:32.761Z,92.30
2019-05-14T04:36:39.249Z,92.50
2019-05-14T04:41:43.903Z,92.80
2019-05-14T04:46:49.304Z,92.80
2019-05-14T04:51:54.015Z,92.70
2019-05-14T04:56:59.953Z,92.30
2019-05-14T05:02:09.223Z,93.50
2019-05-14T05:07:12.216Z,95.70
2019-05-14T05:12:19.462Z,95.70
2019-05-14T05:17:37.814Z,95.50
2019-05-14T05:22:28.999Z,95.50
2019-05-14T05:27:33.428Z,95.70
2019-05-14T05:32:38.868Z,95.70
2019-05-14T05:37:43.640Z,95.70
2019-05-14T05:42:48.980Z,95.70
2019-05-14T05:47:58.194Z,95.60
2019-05-14T05:52:59.847Z,95.70
2019-05-14T05:58:04.342Z,95.20
2019-05-14T06:03:11.246Z,95.10
2019-05-14T06:08:16.077Z,94.60
2019-05-14T06:13:20.576Z,93.90
2019-05-14T06:18:24.993Z,93.60
2019-05-14T06:23:29.610Z,91.00
2019-05-14T06:28:40.303Z,90.20
2019-05-14T06:33:42.930Z,89.80
2019-05-14T06:38:49.748Z,88.00
2019-05-14T06:43:55.930Z,86.00
2019-05-14T06:49:03.705Z,86.40
2019-05-14T06:54:09.252Z,86.60
2019-05-14T06:59:18.315Z,85.80
2019-05-14T07:04:22.742Z,84.90
2019-05-14T07:09:30.009Z,83.80
2019-05-14T07:14:34.433Z,83.40
2019-05-14T07:19:42.027Z,81.10
2019-05-14T07:24:49.380Z,79.60
2019-05-14T07:29:54.334Z,79.20
2019-05-14T07:34:59.625Z,76.20
2019-05-14T07:40:08.556Z,77.50
2019-05-14T07:45:13.432Z,75.40
2019-05-14T07:50:20.488Z,75.20
2019-05-14T07:55:25.005Z,74.70
2019-05-14T08:00:33.677Z,72.60
2019-05-14T08:05:39.926Z,70.90
2019-05-14T08:10:48.491Z,71.50
2019-05-14T08:15:53.984Z,68.90
2019-05-14T08:20:59.178Z,68.00
2019-05-14T08:26:04.842Z,67.70
2019-05-14T08:31:11.869Z,67.40
2019-05-14T08:36:18.337Z,62.90
2019-05-14T08:41:22.654Z,66.90
2019-05-14T08:46:28.724Z,64.40
2019-05-14T08:51:33.150Z,62.10
2019-05-14T08:56:38.960Z,64.50
2019-05-14T09:01:58.498Z,61.50
2019-05-14T09:06:51.519Z,62.10
2019-05-14T09:11:59.733Z,62.20
2019-05-14T09:17:03.631Z,63.30
2019-05-14T09:22:09.585Z,59.10
2019-05-14T09:27:15.993Z,61.70
2019-05-14T09:32:20.855Z,58.80
2019-05-14T09:37:25.294Z,59.70
2019-05-14T09:42:30.012Z,55.30
2019-05-14T09:47:34.497Z,56.40
2019-05-14T09:52:39.373Z,55.20
2019-05-14T09:57:45.386Z,56.70
2019-05-14T10:02:49.880Z,54.00
2019-05-14T10:07:54.318Z,56.80
2019-05-14T10:13:01.515Z,56.00
2019-05-14T10:18:11.129Z,58.60
2019-05-14T10:23:14.569Z,56.90
2019-05-14T10:28:22.373Z,55.90
2019-05-14T10:33:28.789Z,54.70
2019-05-14T10:38:33.130Z,53.20
2019-05-14T10:43:39.149Z,52.70
2019-05-14T10:48:43.873Z,51.20
2019-05-14T10:53:49.037Z,52.90
2019-05-14T10:58:55.313Z,53.40
2019-05-14T11:04:01.517Z,50.60
2019-05-14T11:09:09.094Z,52.30
2019-05-14T11:14:13.874Z,53.50
2019-05-14T11:19:18.942Z,52.40
2019-05-14T11:24:23.898Z,54.60
2019-05-14T11:29:29.887Z,53.20
2019-05-14T11:34:34.575Z,52.40
2019-05-14T11:39:39.211Z,49.50
2019-05-14T11:44:43.895Z,50.70
2019-05-14T11:49:49.222Z,52.00
2019-05-14T11:54:54.131Z,52.90
2019-05-14T11:59:58.689Z,51.20
2019-05-14T12:05:03.327Z,53.70
2019-05-14T12:10:09.168Z,52.80
2019-05-14T12:15:14.026Z,52.40
2019-05-14T12:20:18.774Z,49.70
2019-05-14T12:25:23.197Z,51.00
2019-05-14T12:30:28.619Z,52.70
2019-05-14T12:35:33.498Z,51.50
2019-05-14T12:40:38.378Z,51.50
2019-05-14T12:45:42.900Z,52.00
2019-05-14T12:50:48.837Z,49.50
2019-05-14T12:55:53.516Z,51.60
2019-05-14T13:00:59.452Z,49.50
2019-05-14T13:06:04.133Z,50.60
2019-05-14T13:11:09.639Z,47.80
2019-05-14T13:16:14.480Z,48.60
2019-05-14T13:21:19.377Z,47.50
2019-05-14T13:26:23.997Z,49.80
2019-05-14T13:31:29.234Z,49.00
2019-05-14T13:36:34.124Z,46.30
2019-05-14T13:41:41.835Z,48.80
2019-05-14T13:46:48.455Z,46.80
2019-05-14T13:51:51.994Z,47.20
2019-05-14T13:56:58.508Z,48.80
2019-05-14T14:02:02.891Z,48.00
2019-05-14T14:07:09.054Z,50.90
2019-05-14T14:12:13.985Z,49.80
2019-05-14T14:17:18.809Z,47.90
2019-05-14T14:22:23.222Z,49.60
2019-05-14T14:27:29.979Z,47.50
2019-05-14T14:32:34.201Z,49.90
2019-05-14T14:37:40.017Z,50.80
2019-05-14T14:42:44.765Z,49.30
2019-05-14T14:47:49.828Z,50.40
2019-05-14T14:52:54.423Z,50.60
2019-05-14T14:57:59.094Z,48.60
2019-05-14T15:03:03.607Z,49.40
2019-05-14T15:08:10.357Z,48.90
2019-05-14T15:13:14.363Z,46.40
2019-05-14T15:18:19.109Z,48.70
2019-05-14T15:23:24.121Z,49.60
2019-05-14T15:28:28.849Z,50.40
2019-05-14T15:33:34.302Z,49.50
2019-05-14T15:38:40.709Z,49.40
2019-05-14T15:43:45.462Z,47.80
2019-05-14T15:48:50.129Z,47.80
2019-05-14T15:54:15.583Z,49.70
2019-05-14T15:59:04.316Z,48.80
2019-05-14T16:04:11.524Z,50.10
2019-05-14T16:09:15.486Z,48.00
2019-05-14T16:14:20.105Z,48.50
2019-05-14T16:19:24.780Z,49.60
2019-05-14T16:24:29.203Z,51.30
2019-05-14T16:29:41.269Z,51.80
2019-05-14T16:34:41.319Z,51.80
2019-05-14T16:39:49.089Z,49.60
2019-05-14T16:44:53.543Z,53.30
2019-05-14T16:49:59.120Z,51.00
2019-05-14T16:55:20.551Z,51.40
2019-05-14T17:00:11.691Z,51.80
2019-05-14T17:05:16.523Z,52.30
2019-05-14T17:10:21.107Z,53.30
2019-05-14T17:15:25.569Z,54.30
2019-05-14T17:20:30.258Z,53.70
2019-05-14T17:25:34.869Z,55.40
2019-05-14T17:30:39.449Z,55.30
2019-05-14T17:35:44.089Z,55.20
2019-05-14T17:40:48.970Z,56.00
2019-05-14T17:45:53.738Z,55.90
2019-05-14T17:50:59.133Z,57.50
2019-05-14T17:56:04.039Z,57.00
2019-05-14T18:01:10.361Z,56.40
2019-05-14T18:06:15.019Z,58.90
2019-05-14T18:11:21.111Z,58.70
2019-05-14T18:16:25.677Z,59.30
2019-05-14T18:21:30.342Z,59.20
2019-05-14T18:26:35.069Z,59.90
2019-05-14T18:31:44.164Z,60.20
2019-05-14T18:36:48.703Z,61.70
2019-05-14T18:41:52.513Z,61.90
2019-05-14T18:46:59.326Z,60.70
2019-05-14T18:52:03.827Z,61.20
2019-05-14T18:57:11.805Z,61.00
2019-05-14T19:02:14.786Z,61.90
2019-05-14T19:07:19.373Z,62.90
2019-05-14T19:12:24.867Z,64.00
2019-05-14T19:17:29.414Z,64.40
2019-05-14T19:22:33.987Z,64.90
2019-05-14T19:27:38.493Z,65.70
2019-05-14T19:32:42.980Z,65.70
2019-05-14T19:37:48.710Z,66.10
2019-05-14T19:42:53.417Z,66.10
2019-05-14T19:47:58.425Z,67.80
2019-05-14T19:53:03.137Z,68.70
2019-05-14T19:58:07.784Z,68.90
2019-05-14T20:03:12.420Z,68.70
2019-05-14T20:08:18.935Z,71.50
2019-05-14T20:13:23.223Z,71.90
2019-05-14T20:18:28.966Z,70.40
2019-05-14T20:23:33.867Z,71.20
2019-05-14T20:28:39.058Z,72.90
2019-05-14T20:33:43.785Z,73.80
2019-05-14T20:38:48.309Z,75.60
2019-05-14T20:43:52.789Z,75.50
2019-05-14T20:48:59.129Z,76.70
2019-05-14T20:54:03.454Z,76.60
2019-05-14T20:59:10.423Z,74.70
2019-05-14T21:04:14.892Z,75.90
2019-05-14T21:09:19.384Z,77.70
2019-05-14T21:14:25.254Z,78.90
2019-05-14T21:19:29.702Z,78.90
2019-05-14T21:24:34.119Z,79.20
2019-05-14T21:29:38.646Z,79.50
2019-05-14T21:34:43.148Z,79.90
2019-05-14T21:39:49.113Z,81.20
2019-05-14T21:44:53.584Z,82.60
2019-05-14T21:49:58.070Z,81.10
2019-05-14T21:55:02.565Z,80.70
2019-05-14T22:00:20.579Z,81.20
2019-05-14T22:05:25.602Z,82.60
2019-05-14T22:10:30.247Z,83.60
2019-05-14T22:15:34.812Z,84.40
2019-05-14T22:20:39.237Z,84.30
2019-05-14T22:25:43.659Z,84.10
2019-05-14T22:30:48.270Z,84.40
2019-05-14T22:35:52.767Z,84.00
2019-05-14T22:40:59.205Z,84.10
2019-05-14T22:46:03.408Z,84.20
2019-05-14T22:51:08.694Z,84.80
2019-05-14T22:56:13.367Z,84.60
2019-05-14T23:01:18.515Z,84.40
2019-05-14T23:06:23.153Z,84.90
2019-05-14T23:11:28.818Z,85.10
2019-05-14T23:16:38.282Z,85.20
2019-05-14T23:21:39.687Z,85.80
2019-05-14T23:26:44.174Z,86.10
2019-05-14T23:31:49.015Z,86.90
2019-05-14T23:36:53.798Z,86.70
2019-05-14T23:41:58.583Z,86.40
2019-05-14T23:47:02.965Z,86.60
2019-05-14T23:52:07.545Z,86.70
2019-05-14T23:57:11.947Z,86.90
